createdAt,value
2023-01-21T00:01:14.632Z,16.49
2023-01-21T00:03:43.089Z,16.11
2023-01-21T00:06:12.283Z,16.04
2023-01-21T00:08:41.895Z,16.36
2023-01-21T00:11:12.135Z,16.33
2023-01-21T00:13:40.351Z,16.06
2023-01-21T00:16:08.796Z,16.11
2023-01-21T00:18:37.150Z,16.25
2023-01-21T00:21:05.347Z,16.12
2023-01-21T00:23:32.951Z,16.05
2023-01-21T00:26:02.411Z,16.24
2023-01-21T00:28:32.096Z,16.25
2023-01-21T00:31:01.158Z,15.86
2023-01-21T00:33:30.456Z,15.98
2023-01-21T00:36:04.864Z,16.14
2023-01-21T00:38:33.464Z,16.10
2023-01-21T00:41:02.121Z,15.71
2023-01-21T00:43:30.647Z,15.59
2023-01-21T00:45:59.870Z,15.93
2023-01-21T00:48:29.592Z,16.11
2023-01-21T00:51:01.710Z,16.04
2023-01-21T00:53:33.504Z,15.81
2023-01-21T00:56:07.560Z,15.94
2023-01-21T00:58:35.895Z,15.93
2023-01-21T01:01:09.955Z,15.92
2023-01-21T01:03:39.300Z,15.95
2023-01-21T01:06:13.957Z,15.99
2023-01-21T01:08:43.235Z,15.94
2023-01-21T01:11:12.542Z,15.87
2023-01-21T01:13:41.261Z,15.92
2023-01-21T01:16:11.331Z,15.95
2023-01-21T01:18:39.207Z,15.87
2023-01-21T01:21:13.050Z,15.98
2023-01-21T01:23:41.115Z,15.37
2023-01-21T01:26:13.158Z,15.91
2023-01-21T01:28:41.289Z,15.33
2023-01-21T01:31:13.077Z,15.86
2023-01-21T01:33:40.921Z,15.51
2023-01-21T01:36:13.697Z,15.78
2023-01-21T01:38:41.762Z,15.48
2023-01-21T01:41:16.423Z,15.95
2023-01-21T01:44:04.373Z,15.94
2023-01-21T01:46:33.373Z,15.86
2023-01-21T01:49:07.364Z,15.89
2023-01-21T01:51:49.426Z,15.92
2023-01-21T01:54:29.228Z,14.99
2023-01-21T01:57:00.743Z,15.63
2023-01-21T01:59:31.396Z,15.53
2023-01-21T02:02:05.439Z,15.80
2023-01-21T02:04:37.297Z,15.79
2023-01-21T02:07:05.333Z,15.43
2023-01-21T02:09:33.306Z,15.72
2023-01-21T02:12:03.562Z,15.76
2023-01-21T02:14:33.178Z,15.53
2023-01-21T02:17:28.647Z,15.75
2023-01-21T02:20:15.616Z,15.77
2023-01-21T02:22:54.294Z,15.56
2023-01-21T02:25:45.502Z,15.75
2023-01-21T02:28:28.508Z,15.74
2023-01-21T02:31:06.347Z,15.11
2023-01-21T02:33:57.432Z,15.73
2023-01-21T02:36:36.927Z,15.69
2023-01-21T02:39:07.669Z,15.65
2023-01-21T02:42:04.955Z,15.61
2023-01-21T02:44:54.908Z,15.61
2023-01-21T02:47:35.965Z,15.64
2023-01-21T02:50:13.079Z,15.38
2023-01-21T02:52:41.856Z,15.02
2023-01-21T02:55:16.083Z,15.53
2023-01-21T02:57:51.372Z,15.55
2023-01-21T03:00:34.487Z,15.37
2023-01-21T03:03:08.179Z,15.52
2023-01-21T03:06:13.652Z,15.46
2023-01-21T03:08:49.727Z,15.42
2023-01-21T03:11:20.932Z,15.37
2023-01-21T03:14:16.376Z,15.32
2023-01-21T03:16:57.435Z,15.28
2023-01-21T03:19:35.261Z,15.06
2023-01-21T03:22:08.518Z,15.24
2023-01-21T03:24:41.112Z,15.11
2023-01-21T03:27:12.297Z,14.99
2023-01-21T03:29:42.743Z,15.35
2023-01-21T03:32:15.636Z,15.36
2023-01-21T03:34:49.008Z,15.03
2023-01-21T03:37:19.887Z,15.31
2023-01-21T03:39:59.132Z,15.08
2023-01-21T03:42:29.665Z,15.30
2023-01-21T03:44:58.069Z,15.23
2023-01-21T03:47:52.392Z,15.14
2023-01-21T03:50:31.736Z,14.95
2023-01-21T03:53:00.345Z,14.46
2023-01-21T03:55:28.158Z,15.00
2023-01-21T03:57:57.342Z,14.96
2023-01-21T04:00:25.439Z,14.83
2023-01-21T04:02:53.188Z,14.48
2023-01-21T04:05:21.756Z,14.17
2023-01-21T04:07:49.502Z,14.70
2023-01-21T04:10:17.871Z,14.70
2023-01-21T04:12:45.797Z,15.08
2023-01-21T04:15:13.691Z,15.05
2023-01-21T04:17:41.532Z,14.74
2023-01-21T04:20:10.120Z,15.22
2023-01-21T04:22:39.383Z,14.30
2023-01-21T04:25:07.400Z,15.15
2023-01-21T04:27:35.288Z,14.66
2023-01-21T04:30:03.319Z,14.93
2023-01-21T04:32:31.199Z,15.11
2023-01-21T04:34:59.156Z,15.33
2023-01-21T04:37:27.674Z,15.33
2023-01-21T04:39:55.437Z,15.27
2023-01-21T04:42:26.250Z,14.90
2023-01-21T04:44:54.700Z,15.31
2023-01-21T04:47:22.393Z,15.07
2023-01-21T04:49:50.163Z,15.08
2023-01-21T04:52:17.919Z,15.28
2023-01-21T04:54:45.797Z,15.02
2023-01-21T04:57:13.561Z,15.34
2023-01-21T04:59:41.506Z,15.01
2023-01-21T05:02:09.434Z,15.34
2023-01-21T05:04:37.595Z,15.15
2023-01-21T05:07:05.630Z,15.30
2023-01-21T05:09:33.628Z,15.18
2023-01-21T05:12:01.328Z,14.68
2023-01-21T05:14:29.094Z,14.96
2023-01-21T05:16:57.213Z,15.35
2023-01-21T05:19:26.047Z,15.17
2023-01-21T05:21:54.137Z,14.88
2023-01-21T05:24:21.976Z,15.31
2023-01-21T05:26:50.076Z,14.77
2023-01-21T05:29:18.095Z,15.33
2023-01-21T05:31:46.065Z,15.02
2023-01-21T05:34:14.382Z,15.17
2023-01-21T05:36:42.047Z,15.34
2023-01-21T05:39:10.187Z,15.15
2023-01-21T05:41:37.942Z,15.26
2023-01-21T05:44:06.188Z,14.60
2023-01-21T05:46:34.048Z,15.33
2023-01-21T05:49:02.590Z,14.98
2023-01-21T05:51:31.841Z,15.06
2023-01-21T05:53:59.686Z,14.88
2023-01-21T05:56:27.458Z,15.24
2023-01-21T05:58:55.285Z,14.56
2023-01-21T06:01:23.114Z,14.62
2023-01-21T06:03:50.889Z,15.30
2023-01-21T06:06:18.715Z,14.90
2023-01-21T06:08:46.472Z,14.93
2023-01-21T06:11:14.194Z,15.34
2023-01-21T06:13:41.898Z,15.11
2023-01-21T06:16:09.755Z,15.21
2023-01-21T06:18:38.684Z,15.39
2023-01-21T06:21:06.514Z,15.13
2023-01-21T06:23:34.700Z,15.44
2023-01-21T06:26:03.729Z,15.44
2023-01-21T06:28:31.658Z,15.36
2023-01-21T06:30:59.760Z,14.81
2023-01-21T06:33:27.681Z,15.31
2023-01-21T06:35:55.521Z,15.62
2023-01-21T06:38:24.244Z,15.55
2023-01-21T06:40:51.958Z,15.20
2023-01-21T06:43:20.005Z,15.31
2023-01-21T06:45:47.817Z,15.23
2023-01-21T06:48:15.616Z,15.36
2023-01-21T06:50:43.653Z,15.23
2023-01-21T06:53:12.032Z,15.37
2023-01-21T06:55:40.538Z,15.28
2023-01-21T06:58:08.405Z,15.47
2023-01-21T07:00:36.188Z,15.35
2023-01-21T07:03:04.223Z,14.96
2023-01-21T07:05:32.063Z,15.18
2023-01-21T07:08:00.074Z,15.00
2023-01-21T07:10:28.131Z,15.38
2023-01-21T07:12:56.011Z,15.56
2023-01-21T07:15:23.966Z,15.08
2023-01-21T07:17:54.290Z,15.36
2023-01-21T07:20:22.795Z,15.09
2023-01-21T07:22:50.592Z,15.43
2023-01-21T07:25:18.699Z,15.38
2023-01-21T07:27:46.607Z,15.56
2023-01-21T07:30:19.802Z,15.09
2023-01-21T07:32:47.949Z,15.07
2023-01-21T07:35:16.183Z,15.60
2023-01-21T07:37:44.042Z,14.96
2023-01-21T07:40:13.754Z,15.69
2023-01-21T07:42:41.614Z,15.61
2023-01-21T07:45:09.930Z,15.76
2023-01-21T07:47:37.903Z,15.68
2023-01-21T07:50:08.917Z,15.77
2023-01-21T07:52:38.458Z,15.75
2023-01-21T07:55:08.159Z,15.95
2023-01-21T07:57:36.645Z,16.10
2023-01-21T08:00:05.189Z,15.93
2023-01-21T08:02:40.016Z,16.37
2023-01-21T08:05:08.723Z,15.98
2023-01-21T08:07:37.296Z,16.50
2023-01-21T08:10:05.939Z,16.08
2023-01-21T08:12:34.146Z,16.39
2023-01-21T08:15:03.476Z,16.37
2023-01-21T08:17:31.568Z,16.31
2023-01-21T08:19:59.392Z,15.86
2023-01-21T08:22:27.692Z,16.18
2023-01-21T08:24:57.527Z,16.14
2023-01-21T08:27:25.911Z,16.12
2023-01-21T08:29:53.667Z,15.73
2023-01-21T08:32:21.780Z,15.57
2023-01-21T08:34:51.019Z,15.99
2023-01-21T08:37:20.135Z,15.79
2023-01-21T08:39:47.949Z,15.95
2023-01-21T08:42:15.731Z,15.59
2023-01-21T08:44:43.498Z,16.14
2023-01-21T08:47:11.444Z,16.14
2023-01-21T08:49:39.412Z,15.99
2023-01-21T08:52:07.388Z,16.17
2023-01-21T08:54:35.244Z,16.10
2023-01-21T08:57:07.379Z,15.66
2023-01-21T08:59:35.612Z,16.24
2023-01-21T09:02:03.823Z,15.81
2023-01-21T09:04:36.803Z,16.15
2023-01-21T09:07:05.808Z,15.88
2023-01-21T09:09:33.855Z,16.29
2023-01-21T09:12:01.766Z,16.14
2023-01-21T09:14:30.789Z,16.33
2023-01-21T09:16:58.700Z,16.32
2023-01-21T09:19:27.527Z,16.81
2023-01-21T09:21:55.848Z,17.08
2023-01-21T09:24:25.184Z,17.22
2023-01-21T09:26:54.109Z,17.08
2023-01-21T09:29:21.908Z,16.94
2023-01-21T09:31:49.677Z,16.98
2023-01-21T09:34:18.870Z,16.69
2023-01-21T09:36:46.473Z,16.27
2023-01-21T09:39:14.232Z,16.65
2023-01-21T09:41:50.013Z,16.24
2023-01-21T09:44:41.020Z,16.71
2023-01-21T09:47:24.692Z,16.72
2023-01-21T09:49:54.243Z,16.67
2023-01-21T09:52:40.101Z,16.66
2023-01-21T09:55:35.700Z,16.56
2023-01-21T09:58:18.752Z,16.60
2023-01-21T10:00:58.625Z,16.60
2023-01-21T10:03:35.437Z,16.55
2023-01-21T10:06:19.115Z,16.53
2023-01-21T10:08:52.708Z,16.55
2023-01-21T10:12:01.246Z,16.51
2023-01-21T10:14:48.758Z,16.50
2023-01-21T10:17:34.619Z,16.53
2023-01-21T10:20:17.660Z,16.54
2023-01-21T10:22:57.454Z,16.41
2023-01-21T10:25:37.102Z,16.50
2023-01-21T10:28:17.968Z,16.56
2023-01-21T10:30:51.648Z,16.50
2023-01-21T10:33:24.265Z,16.54
2023-01-21T10:36:18.018Z,16.51
2023-01-21T10:38:51.883Z,16.51
2023-01-21T10:41:35.799Z,16.58
2023-01-21T10:44:19.761Z,16.59
2023-01-21T10:46:47.559Z,16.61
2023-01-21T10:49:31.577Z,16.64
2023-01-21T10:52:09.627Z,16.35
2023-01-21T10:54:58.480Z,16.39
2023-01-21T10:57:32.358Z,16.65
2023-01-21T11:00:02.956Z,16.66
2023-01-21T11:02:33.120Z,16.57
2023-01-21T11:05:04.109Z,16.68
2023-01-21T11:07:37.435Z,16.53
2023-01-21T11:10:09.402Z,16.22
2023-01-21T11:12:38.250Z,16.59
2023-01-21T11:15:19.245Z,16.60
2023-01-21T11:17:50.394Z,16.77
2023-01-21T11:20:42.871Z,16.66
2023-01-21T11:23:33.654Z,16.72
2023-01-21T11:26:10.280Z,16.74
2023-01-21T11:28:39.020Z,16.95
2023-01-21T11:31:16.013Z,16.96
2023-01-21T11:33:44.378Z,16.65
2023-01-21T11:36:19.266Z,17.03
2023-01-21T11:38:59.928Z,16.61
2023-01-21T11:41:31.467Z,16.97
2023-01-21T11:44:25.957Z,17.08
2023-01-21T11:46:53.708Z,17.06
2023-01-21T11:49:26.202Z,17.05
2023-01-21T11:52:15.318Z,16.97
2023-01-21T11:54:43.340Z,17.05
2023-01-21T11:57:26.082Z,17.06
2023-01-21T11:59:57.613Z,15.80
2023-01-21T12:02:36.119Z,17.08
2023-01-21T12:05:15.535Z,16.70
2023-01-21T12:07:48.121Z,17.01
2023-01-21T12:10:16.201Z,17.09
2023-01-21T12:13:11.945Z,17.09
2023-01-21T12:15:59.161Z,17.06
2023-01-21T12:18:45.227Z,17.07
2023-01-21T12:22:00.322Z,16.86
2023-01-21T12:24:46.324Z,17.06
2023-01-21T12:27:29.775Z,17.10
2023-01-21T12:30:03.911Z,17.11
2023-01-21T12:32:37.497Z,17.15
2023-01-21T12:35:27.050Z,16.98
2023-01-21T12:38:11.681Z,16.81
2023-01-21T12:41:01.817Z,17.46
2023-01-21T12:43:37.152Z,17.52
2023-01-21T12:46:17.360Z,17.55
2023-01-21T12:48:45.035Z,17.55
2023-01-21T12:51:22.383Z,17.28
2023-01-21T12:53:53.045Z,17.61
2023-01-21T12:56:42.743Z,17.65
2023-01-21T12:59:32.646Z,17.71
2023-01-21T13:02:34.118Z,17.80
2023-01-21T13:05:15.356Z,17.82
2023-01-21T13:07:59.413Z,17.85
2023-01-21T13:10:35.576Z,17.84
2023-01-21T13:13:30.198Z,17.77
2023-01-21T13:16:05.316Z,17.74
2023-01-21T13:18:45.603Z,17.59
2023-01-21T13:21:34.952Z,17.37
2023-01-21T13:24:24.427Z,17.63
2023-01-21T13:27:18.512Z,17.65
2023-01-21T13:30:19.513Z,17.53
2023-01-21T13:33:16.353Z,17.56
2023-01-21T13:36:25.841Z,17.64
2023-01-21T13:38:59.706Z,17.72
2023-01-21T13:41:39.424Z,17.59
2023-01-21T13:44:40.154Z,17.77
2023-01-21T13:47:30.032Z,17.76
2023-01-21T13:50:06.462Z,17.68
2023-01-21T13:52:58.909Z,17.58
2023-01-21T13:55:45.178Z,17.32
2023-01-21T13:58:33.184Z,17.38
2023-01-21T14:01:07.280Z,17.76
2023-01-21T14:03:53.069Z,17.65
2023-01-21T14:06:56.863Z,17.53
2023-01-21T14:09:29.137Z,17.42
2023-01-21T14:12:09.773Z,17.16
2023-01-21T14:15:12.177Z,17.67
2023-01-21T14:18:12.398Z,17.67
2023-01-21T14:21:12.701Z,17.60
2023-01-21T14:24:22.961Z,17.53
2023-01-21T14:26:53.908Z,17.55
2023-01-21T14:29:45.355Z,17.63
2023-01-21T14:32:39.587Z,17.66
2023-01-21T14:35:18.052Z,17.68
2023-01-21T14:37:51.794Z,17.62
2023-01-21T14:40:25.523Z,16.55
2023-01-21T14:42:54.963Z,17.40
2023-01-21T14:45:44.296Z,17.34
2023-01-21T14:48:30.838Z,17.53
2023-01-21T14:51:12.987Z,17.57
2023-01-21T14:53:48.041Z,17.46
2023-01-21T14:56:31.748Z,17.31
2023-01-21T14:59:03.625Z,17.45
2023-01-21T15:01:42.998Z,17.41
2023-01-21T15:04:35.553Z,17.52
2023-01-21T15:07:09.771Z,17.59
2023-01-21T15:09:43.920Z,17.34
2023-01-21T15:12:23.321Z,17.49
2023-01-21T15:14:59.209Z,17.51
2023-01-21T15:17:55.602Z,17.47
2023-01-21T15:20:42.238Z,17.50
2023-01-21T15:23:19.228Z,17.53
2023-01-21T15:26:03.595Z,17.56
2023-01-21T15:28:46.577Z,17.50
2023-01-21T15:31:20.722Z,17.45
2023-01-21T15:33:53.880Z,17.23
2023-01-21T15:36:26.428Z,17.40
2023-01-21T15:39:00.896Z,17.37
2023-01-21T15:41:43.605Z,17.34
2023-01-21T15:44:38.831Z,16.42
2023-01-21T15:47:17.604Z,17.14
2023-01-21T15:50:04.049Z,17.27
2023-01-21T15:52:44.170Z,17.06
2023-01-21T15:55:36.840Z,17.22
2023-01-21T15:58:32.486Z,17.16
2023-01-21T16:01:10.343Z,17.10
2023-01-21T16:03:47.767Z,17.10
2023-01-21T16:06:53.257Z,17.15
2023-01-21T16:09:35.526Z,16.97
2023-01-21T16:12:51.709Z,17.12
2023-01-21T16:15:44.741Z,16.97
2023-01-21T16:18:12.440Z,17.05
2023-01-21T16:20:50.854Z,16.65
2023-01-21T16:23:23.306Z,17.05
2023-01-21T16:25:53.327Z,16.99
2023-01-21T16:28:21.804Z,16.97
2023-01-21T16:30:58.123Z,16.67
2023-01-21T16:33:26.092Z,16.99
2023-01-21T16:36:01.756Z,16.40
2023-01-21T16:38:32.937Z,17.01
2023-01-21T16:41:06.848Z,17.10
2023-01-21T16:43:37.418Z,17.10
2023-01-21T16:46:12.438Z,17.20
2023-01-21T16:48:40.799Z,17.24
2023-01-21T16:51:23.890Z,17.01
2023-01-21T16:54:19.660Z,17.20
2023-01-21T16:56:50.355Z,17.14
2023-01-21T16:59:26.569Z,17.11
2023-01-21T17:01:56.310Z,16.95
2023-01-21T17:04:24.290Z,17.05
2023-01-21T17:06:54.107Z,16.85
2023-01-21T17:09:27.472Z,16.96
2023-01-21T17:11:57.164Z,17.21
2023-01-21T17:14:28.892Z,17.06
2023-01-21T17:16:59.724Z,16.92
2023-01-21T17:19:35.688Z,16.80
2023-01-21T17:22:19.937Z,17.03
2023-01-21T17:24:54.021Z,16.93
2023-01-21T17:27:23.650Z,16.56
2023-01-21T17:29:51.483Z,16.16
2023-01-21T17:32:33.778Z,16.91
2023-01-21T17:35:07.697Z,16.43
2023-01-21T17:38:02.328Z,16.93
2023-01-21T17:41:03.767Z,16.87
2023-01-21T17:43:32.466Z,16.82
2023-01-21T17:46:01.648Z,16.48
2023-01-21T17:48:33.231Z,16.78
2023-01-21T17:51:17.893Z,16.57
2023-01-21T17:53:59.201Z,16.47
2023-01-21T17:56:51.762Z,16.86
2023-01-21T17:59:35.412Z,16.80
2023-01-21T18:02:14.907Z,16.84
2023-01-21T18:04:43.531Z,16.85
2023-01-21T18:07:27.907Z,16.69
2023-01-21T18:10:00.688Z,16.81
2023-01-21T18:12:30.540Z,16.80
2023-01-21T18:14:58.676Z,16.77
2023-01-21T18:17:27.478Z,16.29
2023-01-21T18:19:57.066Z,16.42
2023-01-21T18:22:30.522Z,16.18
2023-01-21T18:24:58.353Z,16.46
2023-01-21T18:27:26.400Z,16.73
2023-01-21T18:29:54.812Z,16.00
2023-01-21T18:32:22.501Z,16.68
2023-01-21T18:34:50.520Z,16.64
2023-01-21T18:37:19.976Z,16.66
2023-01-21T18:39:49.040Z,16.43
2023-01-21T18:42:18.184Z,16.40
2023-01-21T18:44:46.173Z,16.70
2023-01-21T18:47:16.277Z,16.71
2023-01-21T18:49:45.320Z,16.60
2023-01-21T18:52:20.065Z,16.65
2023-01-21T18:54:47.960Z,16.41
2023-01-21T18:57:19.161Z,16.67
2023-01-21T18:59:47.013Z,16.45
2023-01-21T19:02:18.068Z,16.69
2023-01-21T19:04:47.031Z,16.68
2023-01-21T19:07:22.690Z,16.43
2023-01-21T19:09:51.415Z,16.73
2023-01-21T19:12:24.480Z,16.67
2023-01-21T19:14:53.441Z,16.82
2023-01-21T19:17:32.710Z,16.88
2023-01-21T19:20:02.909Z,16.92
2023-01-21T19:22:30.648Z,16.77
2023-01-21T19:24:58.464Z,16.85
2023-01-21T19:27:32.041Z,16.16
2023-01-21T19:30:00.032Z,17.01
2023-01-21T19:32:28.045Z,16.99
2023-01-21T19:34:57.879Z,16.98
2023-01-21T19:37:25.925Z,16.65
2023-01-21T19:39:53.639Z,16.78
2023-01-21T19:42:21.357Z,16.74
2023-01-21T19:44:49.172Z,17.04
2023-01-21T19:47:27.383Z,17.25
2023-01-21T19:49:55.178Z,16.99
2023-01-21T19:52:23.085Z,17.17
2023-01-21T19:54:52.783Z,17.17
2023-01-21T19:57:22.651Z,16.72
2023-01-21T19:59:52.353Z,17.23
2023-01-21T20:02:20.276Z,17.33
2023-01-21T20:04:48.110Z,17.41
2023-01-21T20:07:16.626Z,16.95
2023-01-21T20:09:44.637Z,17.25
2023-01-21T20:12:13.301Z,17.25
2023-01-21T20:14:41.152Z,17.37
2023-01-21T20:17:13.251Z,17.21
2023-01-21T20:19:41.520Z,17.27
2023-01-21T20:22:13.763Z,17.42
2023-01-21T20:24:42.190Z,16.48
2023-01-21T20:27:14.823Z,17.42
2023-01-21T20:29:55.683Z,16.75
2023-01-21T20:32:30.506Z,17.43
2023-01-21T20:34:58.261Z,17.22
2023-01-21T20:37:26.471Z,17.29
2023-01-21T20:39:54.233Z,17.26
2023-01-21T20:42:22.041Z,16.86
2023-01-21T20:44:50.030Z,16.28
2023-01-21T20:47:32.521Z,17.10
2023-01-21T20:50:24.626Z,16.44
2023-01-21T20:52:53.431Z,16.63
2023-01-21T20:55:24.273Z,16.86
2023-01-21T20:57:54.158Z,17.13
2023-01-21T21:00:27.961Z,17.35
2023-01-21T21:02:56.329Z,17.17
2023-01-21T21:05:25.831Z,17.32
2023-01-21T21:07:54.579Z,17.11
2023-01-21T21:10:29.781Z,17.27
2023-01-21T21:12:59.023Z,17.17
2023-01-21T21:15:32.161Z,17.09
2023-01-21T21:18:00.589Z,17.05
2023-01-21T21:20:31.029Z,16.96
2023-01-21T21:22:58.941Z,16.81
2023-01-21T21:25:29.900Z,16.91
2023-01-21T21:27:58.438Z,17.01
2023-01-21T21:30:29.934Z,16.98
2023-01-21T21:32:59.689Z,16.73
2023-01-21T21:35:32.701Z,16.73
2023-01-21T21:38:05.050Z,16.85
2023-01-21T21:40:34.776Z,16.83
2023-01-21T21:43:21.393Z,16.81
2023-01-21T21:46:08.129Z,16.59
2023-01-21T21:48:39.016Z,16.62
2023-01-21T21:51:10.991Z,16.76
2023-01-21T21:53:40.581Z,16.20
2023-01-21T21:56:17.282Z,16.68
2023-01-21T21:58:45.719Z,16.50
2023-01-21T22:01:18.894Z,16.04
2023-01-21T22:03:47.266Z,15.75
2023-01-21T22:06:15.545Z,16.45
2023-01-21T22:08:43.781Z,16.34
2023-01-21T22:11:17.269Z,16.44
2023-01-21T22:13:50.278Z,16.29
2023-01-21T22:16:21.634Z,16.26
2023-01-21T22:18:54.012Z,16.36
2023-01-21T22:21:27.419Z,16.12
2023-01-21T22:23:56.460Z,16.00
2023-01-21T22:26:25.945Z,15.80
2023-01-21T22:28:55.706Z,16.18
2023-01-21T22:31:26.145Z,16.36
2023-01-21T22:33:54.965Z,16.19
2023-01-21T22:36:25.090Z,16.37
2023-01-21T22:38:54.130Z,16.38
2023-01-21T22:41:24.094Z,16.40
2023-01-21T22:43:53.002Z,16.38
2023-01-21T22:46:26.640Z,15.94
2023-01-21T22:48:54.821Z,16.04
2023-01-21T22:51:24.048Z,16.14
2023-01-21T22:53:54.148Z,15.62
2023-01-21T22:56:40.006Z,15.93
2023-01-21T22:59:12.042Z,16.13
2023-01-21T23:01:40.385Z,15.81
2023-01-21T23:04:09.033Z,16.18
2023-01-21T23:06:37.829Z,16.20
2023-01-21T23:09:08.151Z,15.77
2023-01-21T23:11:39.374Z,16.00
2023-01-21T23:14:10.426Z,16.27
2023-01-21T23:16:38.753Z,16.23
2023-01-21T23:19:09.435Z,15.71
2023-01-21T23:21:38.518Z,16.09
2023-01-21T23:24:07.481Z,16.09
2023-01-21T23:26:35.532Z,16.00
2023-01-21T23:29:04.442Z,15.80
2023-01-21T23:31:32.256Z,15.97
2023-01-21T23:34:00.263Z,15.57
2023-01-21T23:36:28.323Z,16.00
2023-01-21T23:38:56.271Z,15.49
2023-01-21T23:41:24.569Z,16.01
2023-01-21T23:43:52.419Z,15.83
2023-01-21T23:46:20.486Z,15.59
2023-01-21T23:48:48.643Z,15.89
2023-01-21T23:51:18.424Z,15.89
2023-01-21T23:53:49.226Z,15.57
2023-01-21T23:56:21.132Z,15.80
2023-01-21T23:58:49.709Z,15.76
